Time;durP1;ratioP1;P1;durP2;ratioP2;P2;SDS_P1;SDS_P2;PMS_P1;PMS_P2;Temp;Humidity;BMP_temperature;BMP_pressure;BME280_temperature;BME280_humidity;BME280_pressure;Samples;Min_cycle;Max_cycle;Signal;HPM_P1;HPM_P2
2021/10/02 00:46:51;;;;;;;;;;;14.60;99.90;;;;;;5040198;28;19983;-84
2021/10/02 00:49:17;;;;;;;;;;;14.60;99.90;;;;;;5039582;28;19905;-84
2021/10/02 00:51:44;;;;;;;;;;;14.60;99.90;;;;;;5057305;28;19909;-83
2021/10/02 00:54:10;;;;;;;;;;;14.60;99.90;;;;;;5063691;28;19920;-78
2021/10/02 00:56:35;;;;;;;;;;;14.70;99.90;;;;;;5067380;28;19932;-81
2021/10/02 00:59:01;;;;;;;;;;;14.70;99.90;;;;;;5056795;28;19973;-80
2021/10/02 01:01:31;;;;;;;;;;;14.70;99.90;;;;;;5064295;28;20491;-82
2021/10/02 01:04:17;;;;;;;;;;;14.70;99.90;;;;;;5060214;28;19949;-82
2021/10/02 01:07:01;;;;;;;;;;;14.70;99.90;;;;;;5069740;28;19908;-83
2021/10/02 01:09:37;;;;;;;;;;;14.70;99.90;;;;;;5059783;28;19917;-82
2021/10/02 01:12:09;;;;;;;;;;;14.70;99.90;;;;;;5063394;28;20444;-82
2021/10/02 01:14:43;;;;;;;;;;;14.70;99.90;;;;;;5073119;28;19900;-81
2021/10/02 01:17:14;;;;;;;;;;;14.70;99.90;;;;;;5060138;28;19905;-79
2021/10/02 01:19:59;;;;;;;;;;;14.70;99.90;;;;;;5044984;28;20019;-82
2021/10/02 01:22:43;;;;;;;;;;;14.70;99.90;;;;;;5036500;28;19913;-82
2021/10/02 01:25:28;;;;;;;;;;;14.70;99.90;;;;;;5036505;28;19921;-81
2021/10/02 01:28:10;;;;;;;;;;;14.70;99.90;;;;;;5036277;28;19920;-82
2021/10/02 01:30:56;;;;;;;;;;;14.70;99.90;;;;;;5048115;28;19913;-82
2021/10/02 01:33:43;;;;;;;;;;;14.70;99.90;;;;;;5041537;28;19919;-81
2021/10/02 01:36:33;;;;;;;;;;;14.70;99.90;;;;;;5043042;28;19934;-81
2021/10/02 01:47:28;;;;;;;;;;;14.70;99.90;;;;;;5020850;28;19919;-82
2021/10/02 01:49:55;;;;;;;;;;;14.60;99.90;;;;;;5031791;28;19951;-83
2021/10/02 01:52:25;;;;;;;;;;;14.60;99.90;;;;;;5033784;28;19936;-82
2021/10/02 01:54:53;;;;;;;;;;;14.70;99.90;;;;;;5041133;28;20285;-83
2021/10/02 01:57:20;;;;;;;;;;;14.60;99.90;;;;;;5038466;28;20011;-83
2021/10/02 01:59:46;;;;;;;;;;;14.60;99.90;;;;;;5035748;28;19913;-82
2021/10/02 02:02:12;;;;;;;;;;;14.60;99.90;;;;;;5053126;28;19919;-83
2021/10/02 02:04:39;;;;;;;;;;;14.50;99.90;;;;;;5038549;28;19987;-82
2021/10/02 02:07:05;;;;;;;;;;;14.50;99.90;;;;;;5036045;28;19916;-82
2021/10/02 02:09:37;;;;;;;;;;;14.50;99.90;;;;;;5036245;28;19920;-83
2021/10/02 02:12:12;;;;;;;;;;;14.50;99.90;;;;;;5045125;28;19912;-82
2021/10/02 02:14:40;;;;;;;;;;;14.40;99.90;;;;;;5036936;28;19921;-80
2021/10/02 02:17:06;;;;;;;;;;;14.40;99.90;;;;;;5045253;28;19928;-82
2021/10/02 02:19:33;;;;;;;;;;;14.30;99.90;;;;;;5039598;28;20332;-81
2021/10/02 02:21:59;;;;;;;;;;;14.30;99.90;;;;;;5037241;28;19913;-82
2021/10/02 02:24:26;;;;;;;;;;;14.30;99.90;;;;;;5035263;28;19968;-81
2021/10/02 02:26:52;;;;;;;;;;;14.40;99.90;;;;;;5036181;28;19917;-82
2021/10/02 02:29:17;;;;;;;;;;;14.40;99.90;;;;;;5036309;28;19913;-82
2021/10/02 02:31:43;;;;;;;;;;;14.30;99.90;;;;;;5037053;28;19975;-82
2021/10/02 02:34:09;;;;;;;;;;;14.30;99.90;;;;;;5036978;28;19913;-81
2021/10/02 02:36:34;;;;;;;;;;;14.30;99.90;;;;;;5040841;28;19936;-81
2021/10/02 02:39:00;;;;;;;;;;;14.30;99.90;;;;;;5049566;28;19968;-81
2021/10/02 02:41:26;;;;;;;;;;;14.20;99.90;;;;;;5055476;28;20108;-81
2021/10/02 02:43:52;;;;;;;;;;;14.20;99.90;;;;;;5037636;28;19913;-81
2021/10/02 02:46:29;;;;;;;;;;;14.10;99.90;;;;;;5040291;28;20391;-80
2021/10/02 02:49:03;;;;;;;;;;;14.10;99.90;;;;;;5045615;28;19999;-80
2021/10/02 02:51:37;;;;;;;;;;;14.10;99.90;;;;;;5036160;28;20274;-81
2021/10/02 02:54:11;;;;;;;;;;;14.00;99.90;;;;;;5035310;28;19913;-81
2021/10/02 02:56:45;;;;;;;;;;;14.00;99.90;;;;;;5042571;28;20396;-82
2021/10/02 02:59:20;;;;;;;;;;;14.00;99.90;;;;;;5040793;28;19913;-80
2021/10/02 03:01:46;;;;;;;;;;;13.90;99.90;;;;;;5034764;28;19959;-81
2021/10/02 03:04:15;;;;;;;;;;;13.90;99.90;;;;;;5034988;28;20322;-82
2021/10/02 03:06:45;;;;;;;;;;;13.90;99.90;;;;;;5034663;28;19909;-81
2021/10/02 03:09:12;;;;;;;;;;;13.90;99.90;;;;;;5035427;28;19920;-81
2021/10/02 03:11:38;;;;;;;;;;;13.90;99.90;;;;;;5034940;28;19913;-82
2021/10/02 03:14:04;;;;;;;;;;;13.90;99.90;;;;;;5048928;28;19922;-82
2021/10/02 03:16:32;;;;;;;;;;;13.90;99.90;;;;;;5055440;28;19908;-82
2021/10/02 03:19:00;;;;;;;;;;;13.80;99.90;;;;;;5052827;28;19913;-82
2021/10/02 03:21:25;;;;;;;;;;;13.90;99.90;;;;;;5047029;28;19913;-81
2021/10/02 03:23:51;;;;;;;;;;;13.80;99.90;;;;;;5038606;28;20426;-82
2021/10/02 03:26:18;;;;;;;;;;;13.80;99.90;;;;;;5040289;28;19921;-81
2021/10/02 03:28:44;;;;;;;;;;;13.80;99.90;;;;;;5035414;28;19917;-82
2021/10/02 03:31:10;;;;;;;;;;;13.80;99.90;;;;;;5035372;28;20288;-81
2021/10/02 03:33:36;;;;;;;;;;;13.80;99.90;;;;;;5038344;28;20373;-83
2021/10/02 03:36:01;;;;;;;;;;;13.80;99.90;;;;;;5047188;28;19948;-82
2021/10/02 03:38:27;;;;;;;;;;;13.80;99.90;;;;;;5038766;28;19959;-82
2021/10/02 03:40:57;;;;;;;;;;;13.80;99.90;;;;;;5033713;28;19956;-82
2021/10/02 03:43:26;;;;;;;;;;;13.80;99.90;;;;;;5035285;28;20012;-82
2021/10/02 03:45:51;;;;;;;;;;;13.80;99.90;;;;;;5035305;28;19960;-81
2021/10/02 03:48:17;;;;;;;;;;;13.70;99.90;;;;;;5036407;28;19920;-82
2021/10/02 03:50:42;;;;;;;;;;;13.70;99.90;;;;;;5035699;28;19956;-83
2021/10/02 03:53:08;;;;;;;;;;;13.70;99.90;;;;;;5034085;28;20362;-82
2021/10/02 03:55:33;;;;;;;;;;;13.70;99.90;;;;;;5036343;28;19913;-83
2021/10/02 03:57:59;;;;;;;;;;;13.70;99.90;;;;;;5033937;28;19913;-83
2021/10/02 04:00:24;;;;;;;;;;;13.70;99.90;;;;;;5035165;28;20312;-84
2021/10/02 04:02:50;;;;;;;;;;;13.60;99.90;;;;;;5035085;28;19959;-83
2021/10/02 04:05:15;;;;;;;;;;;13.60;99.90;;;;;;5036020;28;20284;-83
2021/10/02 04:07:41;;;;;;;;;;;13.60;99.90;;;;;;5054164;28;19913;-83
2021/10/02 04:10:07;;;;;;;;;;;13.60;99.90;;;;;;5054855;28;20008;-83
2021/10/02 04:12:33;;;;;;;;;;;13.60;99.90;;;;;;5047257;28;20396;-82
2021/10/02 04:14:58;;;;;;;;;;;13.60;99.90;;;;;;5054749;28;19909;-83
2021/10/02 04:17:24;;;;;;;;;;;13.60;99.90;;;;;;5039657;28;20015;-83
2021/10/02 04:19:49;;;;;;;;;;;13.60;99.90;;;;;;5033280;28;20000;-84
2021/10/02 04:22:15;;;;;;;;;;;13.50;99.90;;;;;;5043251;28;19939;-83
2021/10/02 04:24:41;;;;;;;;;;;13.60;99.90;;;;;;5033121;28;19928;-83
2021/10/02 04:27:07;;;;;;;;;;;13.50;99.90;;;;;;5034860;28;20377;-83
2021/10/02 04:29:32;;;;;;;;;;;13.50;99.90;;;;;;5035643;28;19920;-83
2021/10/02 04:31:58;;;;;;;;;;;13.50;99.90;;;;;;5043001;28;19913;-84
2021/10/02 04:34:24;;;;;;;;;;;13.50;99.90;;;;;;5042825;28;19913;-84
2021/10/02 04:36:49;;;;;;;;;;;13.50;99.90;;;;;;5034441;28;20393;-83
2021/10/02 04:39:15;;;;;;;;;;;13.50;99.90;;;;;;5035976;28;20281;-84
2021/10/02 04:41:40;;;;;;;;;;;13.50;99.90;;;;;;5035392;28;20380;-85
2021/10/02 04:44:06;;;;;;;;;;;13.50;99.90;;;;;;5046452;28;19972;-84
2021/10/02 04:46:31;;;;;;;;;;;13.50;99.90;;;;;;5033945;28;19924;-85
2021/10/02 04:48:57;;;;;;;;;;;13.50;99.90;;;;;;5035203;28;19913;-84
2021/10/02 04:51:22;;;;;;;;;;;13.60;99.90;;;;;;5038269;28;20059;-84
2021/10/02 04:53:48;;;;;;;;;;;13.60;99.90;;;;;;5052807;28;19916;-83
2021/10/02 04:56:14;;;;;;;;;;;13.60;99.90;;;;;;5055423;28;19901;-80
2021/10/02 04:58:40;;;;;;;;;;;13.60;99.90;;;;;;5066308;28;19897;-82
2021/10/02 05:01:06;;;;;;;;;;;13.50;99.90;;;;;;5066234;28;19901;-79
2021/10/02 05:03:32;;;;;;;;;;;13.60;99.90;;;;;;5058057;28;19989;-81
2021/10/02 05:05:58;;;;;;;;;;;13.50;99.90;;;;;;5059995;28;19909;-81
2021/10/02 05:08:24;;;;;;;;;;;13.50;99.90;;;;;;5065267;28;19932;-81
2021/10/02 05:10:49;;;;;;;;;;;13.60;99.90;;;;;;5059302;28;19908;-80
2021/10/02 05:13:15;;;;;;;;;;;13.60;99.90;;;;;;5058304;28;19901;-81
2021/10/02 05:15:41;;;;;;;;;;;13.60;99.90;;;;;;5059155;28;19901;-79
2021/10/02 05:18:07;;;;;;;;;;;13.60;99.90;;;;;;5072479;28;19917;-80
2021/10/02 05:20:33;;;;;;;;;;;13.60;99.90;;;;;;5058094;28;19928;-77
2021/10/02 05:22:58;;;;;;;;;;;13.50;99.90;;;;;;5061100;28;19936;-79
2021/10/02 05:25:24;;;;;;;;;;;13.50;99.90;;;;;;5070720;28;19932;-79
2021/10/02 05:27:50;;;;;;;;;;;13.60;99.90;;;;;;5057547;28;19960;-79
2021/10/02 05:30:16;;;;;;;;;;;13.60;99.90;;;;;;5058153;28;19929;-82
2021/10/02 05:32:41;;;;;;;;;;;13.60;99.90;;;;;;5057201;28;19939;-76
2021/10/02 05:35:07;;;;;;;;;;;13.50;99.90;;;;;;5048146;28;20301;-82
2021/10/02 05:37:32;;;;;;;;;;;13.50;99.90;;;;;;5035565;28;19909;-82
2021/10/02 05:39:58;;;;;;;;;;;13.60;99.90;;;;;;5035305;28;19917;-81
2021/10/02 05:42:24;;;;;;;;;;;13.60;99.90;;;;;;5039872;28;19917;-82
2021/10/02 05:44:49;;;;;;;;;;;13.60;99.90;;;;;;5036214;28;20337;-81
2021/10/02 05:47:15;;;;;;;;;;;13.60;99.90;;;;;;5040360;28;19913;-80
2021/10/02 05:49:41;;;;;;;;;;;13.60;99.90;;;;;;5034852;28;20436;-83
2021/10/02 05:52:09;;;;;;;;;;;13.60;99.90;;;;;;5032959;28;19913;-82
2021/10/02 05:54:34;;;;;;;;;;;13.60;99.90;;;;;;5032608;28;20502;-82
2021/10/02 05:57:00;;;;;;;;;;;13.60;99.90;;;;;;5034408;28;19909;-81
2021/10/02 05:59:25;;;;;;;;;;;13.60;99.90;;;;;;5033877;28;19924;-83
2021/10/02 06:01:51;;;;;;;;;;;13.60;99.90;;;;;;5032775;28;19913;-81
2021/10/02 06:04:16;;;;;;;;;;;13.60;99.90;;;;;;5031765;28;19920;-82
2021/10/02 06:06:42;;;;;;;;;;;13.60;99.90;;;;;;5041586;28;19966;-81
2021/10/02 06:09:07;;;;;;;;;;;13.60;99.90;;;;;;5036199;28;19917;-82
2021/10/02 06:11:33;;;;;;;;;;;13.60;99.90;;;;;;5042063;28;19975;-83
2021/10/02 06:13:59;;;;;;;;;;;13.60;99.90;;;;;;5036014;28;20019;-81
2021/10/02 06:16:24;;;;;;;;;;;13.70;99.90;;;;;;5032450;28;19913;-82
2021/10/02 06:18:50;;;;;;;;;;;13.80;99.90;;;;;;5032582;28;19964;-82
2021/10/02 06:21:15;;;;;;;;;;;13.80;99.90;;;;;;5040162;28;19920;-83
2021/10/02 06:23:41;;;;;;;;;;;13.80;99.90;;;;;;5037579;28;19921;-82
2021/10/02 06:26:07;;;;;;;;;;;13.80;99.90;;;;;;5045760;28;19917;-83
2021/10/02 06:28:32;;;;;;;;;;;13.80;99.90;;;;;;5047903;28;20396;-82
2021/10/02 06:30:58;;;;;;;;;;;13.80;99.90;;;;;;5037232;28;20015;-84
2021/10/02 06:33:24;;;;;;;;;;;13.80;99.90;;;;;;5042312;28;20413;-84
2021/10/02 06:35:49;;;;;;;;;;;13.80;99.90;;;;;;5031951;28;19913;-83
2021/10/02 06:38:15;;;;;;;;;;;13.80;99.90;;;;;;5032814;28;20301;-83
2021/10/02 06:40:42;;;;;;;;;;;13.80;99.90;;;;;;5037415;28;19920;-83
2021/10/02 06:43:07;;;;;;;;;;;13.80;99.90;;;;;;5040979;28;19909;-82
2021/10/02 06:45:33;;;;;;;;;;;13.80;99.90;;;;;;5039210;28;19926;-82
2021/10/02 06:47:58;;;;;;;;;;;13.90;99.90;;;;;;5052174;28;20384;-82
2021/10/02 06:50:24;;;;;;;;;;;13.80;99.90;;;;;;5044447;28;19927;-82
2021/10/02 06:52:50;;;;;;;;;;;13.80;99.90;;;;;;5044695;28;20043;-83
2021/10/02 06:55:15;;;;;;;;;;;13.90;99.90;;;;;;5044739;28;19913;-80
2021/10/02 06:57:41;;;;;;;;;;;13.90;99.90;;;;;;5037663;28;19913;-81
2021/10/02 07:00:06;;;;;;;;;;;13.80;99.90;;;;;;5044172;28;19916;-82
2021/10/02 07:02:32;;;;;;;;;;;13.90;99.90;;;;;;5035556;28;19921;-81
2021/10/02 07:04:57;;;;;;;;;;;13.90;99.90;;;;;;5034640;28;19925;-81
2021/10/02 07:07:23;;;;;;;;;;;13.90;99.90;;;;;;5038599;28;19916;-82
2021/10/02 07:09:49;;;;;;;;;;;14.00;99.90;;;;;;5054905;28;19913;-81
2021/10/02 07:12:15;;;;;;;;;;;14.00;99.90;;;;;;5037243;28;20413;-81
2021/10/02 07:14:40;;;;;;;;;;;14.00;99.90;;;;;;5048571;28;19956;-80
2021/10/02 07:17:08;;;;;;;;;;;14.10;99.90;;;;;;5034358;28;20292;-82
2021/10/02 07:19:33;;;;;;;;;;;14.00;99.90;;;;;;5047403;28;19995;-81
2021/10/02 07:21:59;;;;;;;;;;;14.10;99.90;;;;;;5035647;28;20056;-81
2021/10/02 07:24:24;;;;;;;;;;;14.20;99.90;;;;;;5034169;28;19965;-81
2021/10/02 07:26:51;;;;;;;;;;;14.20;99.90;;;;;;5051191;28;19912;-81
2021/10/02 07:29:16;;;;;;;;;;;14.20;99.90;;;;;;5044399;28;19975;-81
2021/10/02 07:31:44;;;;;;;;;;;14.20;99.90;;;;;;5047862;28;19913;-81
2021/10/02 07:34:09;;;;;;;;;;;14.20;99.90;;;;;;5046068;28;19913;-82
2021/10/02 07:36:35;;;;;;;;;;;14.20;99.90;;;;;;5034381;28;19909;-80
2021/10/02 07:39:01;;;;;;;;;;;14.30;99.90;;;;;;5039052;28;19913;-81
2021/10/02 07:41:26;;;;;;;;;;;14.40;99.90;;;;;;5040691;28;19963;-81
2021/10/02 07:43:54;;;;;;;;;;;14.40;99.90;;;;;;5035374;28;19932;-83
2021/10/02 07:46:20;;;;;;;;;;;14.50;99.90;;;;;;5043968;28;19916;-82
2021/10/02 07:48:46;;;;;;;;;;;14.50;99.90;;;;;;5040950;28;19962;-83
2021/10/02 07:51:12;;;;;;;;;;;14.50;99.90;;;;;;5033916;28;19956;-83
2021/10/02 07:53:38;;;;;;;;;;;14.60;99.90;;;;;;5036231;28;19921;-80
2021/10/02 07:56:04;;;;;;;;;;;14.60;99.90;;;;;;5044118;28;19959;-81
2021/10/02 07:58:29;;;;;;;;;;;14.60;99.90;;;;;;5053495;28;19917;-82
2021/10/02 08:00:56;;;;;;;;;;;14.60;99.90;;;;;;5047869;28;19913;-81
2021/10/02 08:03:22;;;;;;;;;;;14.70;99.90;;;;;;5050889;28;20412;-82
2021/10/02 08:05:49;;;;;;;;;;;14.80;99.90;;;;;;5035098;28;19919;-81
2021/10/02 08:08:16;;;;;;;;;;;14.80;99.90;;;;;;5033397;28;19913;-82
2021/10/02 08:10:43;;;;;;;;;;;14.70;99.90;;;;;;5042464;28;19975;-83
2021/10/02 08:13:12;;;;;;;;;;;14.80;99.90;;;;;;5040679;28;19913;-85
2021/10/02 08:18:23;;;;;;;;;;;14.80;99.90;;;;;;5036095;28;19955;-82
2021/10/02 08:20:49;;;;;;;;;;;14.90;99.90;;;;;;5038411;28;19924;-80
2021/10/02 08:23:17;;;;;;;;;;;14.80;99.90;;;;;;5034603;28;19913;-82
2021/10/02 08:25:47;;;;;;;;;;;14.80;99.90;;;;;;5035456;28;19925;-87
2021/10/02 08:28:12;;;;;;;;;;;14.80;99.90;;;;;;5034429;28;20000;-84
2021/10/02 08:30:38;;;;;;;;;;;14.90;99.90;;;;;;5048224;28;19948;-82
2021/10/02 08:33:05;;;;;;;;;;;14.90;99.90;;;;;;5056410;28;19917;-79
2021/10/02 08:35:31;;;;;;;;;;;15.00;99.90;;;;;;5075475;28;19979;-84
2021/10/02 08:37:56;;;;;;;;;;;15.10;99.90;;;;;;5076325;28;20047;-79
2021/10/02 08:40:22;;;;;;;;;;;15.10;99.90;;;;;;5059308;28;19917;-85
2021/10/02 08:42:49;;;;;;;;;;;15.20;99.90;;;;;;5058367;28;19901;-84
2021/10/02 08:45:14;;;;;;;;;;;15.30;99.90;;;;;;5071066;28;19925;-80
2021/10/02 08:47:42;;;;;;;;;;;15.30;99.90;;;;;;5078143;28;19904;-81
2021/10/02 08:50:08;;;;;;;;;;;15.30;99.90;;;;;;5060863;28;19908;-81
2021/10/02 08:52:34;;;;;;;;;;;15.30;99.90;;;;;;5058277;28;19940;-79
2021/10/02 08:55:00;;;;;;;;;;;15.40;99.90;;;;;;5062464;28;19914;-81
2021/10/02 08:57:26;;;;;;;;;;;15.40;99.90;;;;;;5058357;28;19971;-82
2021/10/02 08:59:53;;;;;;;;;;;15.50;99.90;;;;;;5075968;28;19911;-78
2021/10/02 09:02:19;;;;;;;;;;;15.60;99.90;;;;;;5078736;28;19897;-82
2021/10/02 09:04:45;;;;;;;;;;;15.60;99.90;;;;;;5070159;28;19977;-82
2021/10/02 09:07:11;;;;;;;;;;;15.60;99.90;;;;;;5060374;28;19951;-82
2021/10/02 09:09:37;;;;;;;;;;;15.70;99.90;;;;;;5078142;28;19901;-85
2021/10/02 09:12:03;;;;;;;;;;;15.70;99.90;;;;;;5062651;28;20024;-84
2021/10/02 09:14:29;;;;;;;;;;;15.80;99.90;;;;;;5058819;28;19917;-79
2021/10/02 09:16:55;;;;;;;;;;;15.70;99.90;;;;;;5042031;28;19936;-86
2021/10/02 09:22:07;;;;;;;;;;;15.80;99.90;;;;;;5039144;28;19928;-84
2021/10/02 09:24:34;;;;;;;;;;;15.90;99.90;;;;;;5040687;28;20012;-85
2021/10/02 09:27:02;;;;;;;;;;;15.90;99.90;;;;;;5034855;28;20325;-84
2021/10/02 09:29:38;;;;;;;;;;;16.00;99.90;;;;;;5034216;28;19913;-84
2021/10/02 09:32:04;;;;;;;;;;;16.10;99.90;;;;;;5037874;28;19909;-83
2021/10/02 09:34:30;;;;;;;;;;;16.10;99.90;;;;;;5054102;28;20011;-81
2021/10/02 09:36:56;;;;;;;;;;;16.20;99.90;;;;;;5034289;28;20441;-82
2021/10/02 09:39:38;;;;;;;;;;;16.20;99.90;;;;;;5032511;28;20258;-84
2021/10/02 09:42:03;;;;;;;;;;;16.30;99.90;;;;;;5039262;28;19999;-82
2021/10/02 09:44:29;;;;;;;;;;;16.50;99.90;;;;;;5034934;28;19952;-81
2021/10/02 09:46:55;;;;;;;;;;;16.50;99.90;;;;;;5041789;28;20349;-79
2021/10/02 09:49:20;;;;;;;;;;;16.70;99.90;;;;;;5033184;28;19968;-79
2021/10/02 09:51:46;;;;;;;;;;;16.50;99.90;;;;;;5042583;28;20377;-81
2021/10/02 09:54:30;;;;;;;;;;;16.40;99.90;;;;;;5034386;28;19927;-80
2021/10/02 09:57:06;;;;;;;;;;;16.40;99.90;;;;;;5038729;28;19967;-81
2021/10/02 09:59:32;;;;;;;;;;;16.40;99.90;;;;;;5033824;28;19913;-79
2021/10/02 10:02:10;;;;;;;;;;;16.50;99.90;;;;;;5035356;28;20019;-78
2021/10/02 10:04:36;;;;;;;;;;;16.50;99.90;;;;;;5040383;28;20321;-81
2021/10/02 10:07:08;;;;;;;;;;;16.50;99.90;;;;;;5032778;28;19956;-79
2021/10/02 10:09:38;;;;;;;;;;;16.50;99.90;;;;;;5036708;28;20391;-79
2021/10/02 10:12:04;;;;;;;;;;;16.60;99.90;;;;;;5041883;28;19975;-81
2021/10/02 10:14:29;;;;;;;;;;;16.50;99.90;;;;;;5033743;28;19917;-79
2021/10/02 10:16:56;;;;;;;;;;;16.50;99.90;;;;;;5041134;28;19913;-80
2021/10/02 10:19:22;;;;;;;;;;;16.60;99.90;;;;;;5043153;28;19965;-80
2021/10/02 10:22:21;;;;;;;;;;;16.60;99.90;;;;;;5046985;28;19913;-77
2021/10/02 10:24:57;;;;;;;;;;;16.60;99.90;;;;;;5021490;28;19993;-80
2021/10/02 10:27:33;;;;;;;;;;;16.50;99.90;;;;;;5047505;28;19928;-80
2021/10/02 10:30:08;;;;;;;;;;;16.50;99.90;;;;;;5052925;28;20007;-81
2021/10/02 10:32:36;;;;;;;;;;;16.50;99.90;;;;;;5047275;28;20285;-80
2021/10/02 10:35:01;;;;;;;;;;;16.40;99.90;;;;;;5056936;28;19912;-81
2021/10/02 10:37:27;;;;;;;;;;;16.40;99.90;;;;;;5037497;28;19920;-81
2021/10/02 10:39:57;;;;;;;;;;;16.30;99.90;;;;;;5047848;28;19920;-79
2021/10/02 10:42:27;;;;;;;;;;;16.40;99.90;;;;;;5042620;28;19920;-80
2021/10/02 10:44:54;;;;;;;;;;;16.50;99.90;;;;;;5036355;28;19968;-79
2021/10/02 10:47:20;;;;;;;;;;;16.50;99.90;;;;;;5050830;28;20342;-80
2021/10/02 10:49:47;;;;;;;;;;;16.50;99.90;;;;;;5038173;28;20007;-79
2021/10/02 10:52:15;;;;;;;;;;;16.50;99.90;;;;;;5050765;28;19921;-78
2021/10/02 10:54:45;;;;;;;;;;;16.40;99.90;;;;;;5042048;28;19913;-78
2021/10/02 10:57:29;;;;;;;;;;;16.40;99.90;;;;;;5053155;28;19913;-78
2021/10/02 10:59:54;;;;;;;;;;;16.30;99.90;;;;;;5045967;28;19913;-80
2021/10/02 11:02:39;;;;;;;;;;;16.40;99.90;;;;;;5049954;28;20284;-76
2021/10/02 11:05:04;;;;;;;;;;;16.40;99.90;;;;;;5041481;28;19928;-79
2021/10/02 11:07:49;;;;;;;;;;;16.40;99.90;;;;;;5042181;28;20314;-80
2021/10/02 11:10:50;;;;;;;;;;;16.40;99.90;;;;;;5051942;28;20458;-79
2021/10/02 11:13:29;;;;;;;;;;;16.50;99.90;;;;;;4967810;28;19920;-80
2021/10/02 11:15:56;;;;;;;;;;;16.50;99.90;;;;;;5041420;28;20429;-79
2021/10/02 11:18:40;;;;;;;;;;;16.40;99.90;;;;;;5048436;28;19913;-80
2021/10/02 11:21:05;;;;;;;;;;;16.50;99.90;;;;;;5043665;28;19967;-81
2021/10/02 11:23:31;;;;;;;;;;;16.50;99.90;;;;;;5036607;28;19916;-81
2021/10/02 11:26:15;;;;;;;;;;;16.50;99.90;;;;;;5042569;28;19960;-80
2021/10/02 11:28:42;;;;;;;;;;;16.50;99.90;;;;;;5040399;28;20441;-78
2021/10/02 11:31:12;;;;;;;;;;;16.60;99.90;;;;;;5039203;28;19920;-78
2021/10/02 11:33:46;;;;;;;;;;;16.50;99.90;;;;;;5034558;28;19918;-80
2021/10/02 11:36:27;;;;;;;;;;;16.60;99.90;;;;;;5052839;28;19920;-80
2021/10/02 11:39:13;;;;;;;;;;;16.60;99.90;;;;;;5039078;28;19914;-80
2021/10/02 11:41:39;;;;;;;;;;;16.60;99.90;;;;;;5028658;28;20300;-79
2021/10/02 11:44:05;;;;;;;;;;;16.50;99.90;;;;;;5047982;28;19957;-81
2021/10/02 11:46:31;;;;;;;;;;;16.50;99.90;;;;;;5037202;28;20325;-80
2021/10/02 11:49:12;;;;;;;;;;;16.70;99.90;;;;;;5049328;28;19917;-81
2021/10/02 11:51:37;;;;;;;;;;;16.80;99.90;;;;;;5034801;28;19913;-80
2021/10/02 11:54:09;;;;;;;;;;;17.00;99.90;;;;;;5034478;28;20264;-81
2021/10/02 11:56:35;;;;;;;;;;;17.00;99.90;;;;;;5034114;28;19914;-80
2021/10/02 11:59:02;;;;;;;;;;;17.10;99.90;;;;;;5045730;28;19913;-79
2021/10/02 12:01:29;;;;;;;;;;;17.30;99.90;;;;;;5035239;28;19919;-80
2021/10/02 12:04:04;;;;;;;;;;;17.40;99.90;;;;;;5047479;28;20415;-80
2021/10/02 12:06:31;;;;;;;;;;;17.50;99.90;;;;;;5045513;28;19916;-80
2021/10/02 12:08:58;;;;;;;;;;;17.80;99.90;;;;;;5050296;28;19935;-80
2021/10/02 12:11:24;;;;;;;;;;;17.90;99.90;;;;;;5047700;28;19913;-80
2021/10/02 12:13:51;;;;;;;;;;;18.00;99.90;;;;;;5043450;28;19923;-80
2021/10/02 12:16:16;;;;;;;;;;;18.00;99.90;;;;;;5037742;28;19917;-80
2021/10/02 12:18:43;;;;;;;;;;;18.00;99.90;;;;;;5033526;28;19913;-80
2021/10/02 12:21:14;;;;;;;;;;;18.10;99.90;;;;;;5042520;28;19920;-79
2021/10/02 12:23:56;;;;;;;;;;;18.30;99.90;;;;;;5047369;28;19920;-79
2021/10/02 12:26:22;;;;;;;;;;;18.30;99.90;;;;;;5037555;28;19970;-80
2021/10/02 12:28:47;;;;;;;;;;;18.30;99.90;;;;;;5034832;28;19924;-79
2021/10/02 12:31:13;;;;;;;;;;;18.20;99.90;;;;;;5039206;28;19913;-81
2021/10/02 12:33:39;;;;;;;;;;;18.20;99.90;;;;;;5034408;28;19920;-79
2021/10/02 12:36:05;;;;;;;;;;;18.00;99.90;;;;;;5048944;28;19920;-78
2021/10/02 12:39:00;;;;;;;;;;;17.80;99.90;;;;;;5041845;28;19913;-78
2021/10/02 12:41:35;;;;;;;;;;;17.60;99.90;;;;;;5023943;28;19913;-80
2021/10/02 12:44:01;;;;;;;;;;;17.50;99.90;;;;;;5033061;28;20366;-80
2021/10/02 12:46:28;;;;;;;;;;;17.50;99.90;;;;;;5033147;28;19927;-79
2021/10/02 12:48:53;;;;;;;;;;;17.50;99.90;;;;;;5033824;28;19996;-79
2021/10/02 12:51:19;;;;;;;;;;;17.50;99.90;;;;;;5033015;28;20360;-79
2021/10/02 12:53:44;;;;;;;;;;;17.50;99.90;;;;;;5033094;28;19920;-80
2021/10/02 12:56:14;;;;;;;;;;;17.60;99.90;;;;;;5041939;28;19913;-79
2021/10/02 12:58:40;;;;;;;;;;;17.70;99.90;;;;;;5033007;28;19917;-79
2021/10/02 13:01:05;;;;;;;;;;;17.60;99.90;;;;;;5034190;28;20155;-79
2021/10/02 13:03:37;;;;;;;;;;;17.60;99.90;;;;;;5035994;28;19913;-80
2021/10/02 13:06:02;;;;;;;;;;;17.60;99.90;;;;;;5051655;28;19920;-80
2021/10/02 13:08:28;;;;;;;;;;;17.40;99.90;;;;;;5037961;28;20019;-79
2021/10/02 13:10:53;;;;;;;;;;;17.30;99.90;;;;;;5034054;28;20164;-80
2021/10/02 13:13:20;;;;;;;;;;;17.20;99.90;;;;;;5035266;28;19920;-79
2021/10/02 13:15:47;;;;;;;;;;;17.20;99.90;;;;;;5034302;28;19975;-78
2021/10/02 13:18:14;;;;;;;;;;;17.10;99.90;;;;;;5042020;28;19920;-79
2021/10/02 13:20:40;;;;;;;;;;;17.10;99.90;;;;;;5036008;28;19963;-77
2021/10/02 13:23:07;;;;;;;;;;;17.10;99.90;;;;;;5039325;28;20129;-80
2021/10/02 13:25:36;;;;;;;;;;;17.00;99.90;;;;;;5051151;28;19905;-82
2021/10/02 13:28:02;;;;;;;;;;;17.00;99.90;;;;;;5056072;28;19944;-78
2021/10/02 13:30:29;;;;;;;;;;;16.90;99.90;;;;;;5073906;28;19912;-80
2021/10/02 13:33:01;;;;;;;;;;;16.80;99.90;;;;;;5075432;28;19920;-78
2021/10/02 13:35:28;;;;;;;;;;;16.80;99.90;;;;;;5061353;28;19921;-78
2021/10/02 13:37:54;;;;;;;;;;;16.90;99.90;;;;;;5058321;28;19908;-78
2021/10/02 13:40:20;;;;;;;;;;;16.90;99.90;;;;;;5056463;28;19901;-77
2021/10/02 13:42:47;;;;;;;;;;;16.90;99.90;;;;;;5071508;28;19907;-77
2021/10/02 13:45:12;;;;;;;;;;;17.00;99.90;;;;;;5065644;28;19913;-79
2021/10/02 13:47:38;;;;;;;;;;;16.90;99.90;;;;;;5061410;28;19985;-78
2021/10/02 13:50:05;;;;;;;;;;;17.00;99.90;;;;;;5068176;28;19943;-77
2021/10/02 13:52:33;;;;;;;;;;;17.00;99.90;;;;;;5066311;28;19902;-77
2021/10/02 13:54:59;;;;;;;;;;;17.00;99.90;;;;;;5076187;28;19900;-75
2021/10/02 13:57:24;;;;;;;;;;;16.90;99.90;;;;;;5066954;28;19909;-76
2021/10/02 13:59:50;;;;;;;;;;;16.90;99.90;;;;;;5060054;28;19977;-77
2021/10/02 14:02:15;;;;;;;;;;;16.90;99.90;;;;;;5081170;28;19905;-77
2021/10/02 14:04:41;;;;;;;;;;;16.90;99.90;;;;;;5067635;28;19924;-79
2021/10/02 14:07:06;;;;;;;;;;;16.90;99.90;;;;;;5059367;28;19981;-78
2021/10/02 14:09:32;;;;;;;;;;;16.80;99.90;;;;;;5064004;28;19936;-78
2021/10/02 14:11:58;;;;;;;;;;;16.90;99.90;;;;;;5068039;28;19917;-77
2021/10/02 14:14:24;;;;;;;;;;;16.80;99.90;;;;;;5074868;28;20179;-78
2021/10/02 14:16:50;;;;;;;;;;;16.70;99.90;;;;;;5073012;28;19943;-78
2021/10/02 14:19:16;;;;;;;;;;;16.70;99.90;;;;;;5060416;28;19917;-78
2021/10/02 14:21:41;;;;;;;;;;;16.70;99.90;;;;;;5059969;28;19901;-75
2021/10/02 14:24:07;;;;;;;;;;;16.60;99.90;;;;;;5047115;28;19925;-78
2021/10/02 14:26:32;;;;;;;;;;;16.60;99.90;;;;;;5039161;28;19917;-80
2021/10/02 14:28:58;;;;;;;;;;;16.70;99.90;;;;;;5041640;28;19913;-79
2021/10/02 14:31:23;;;;;;;;;;;16.70;99.90;;;;;;5038950;28;19913;-78
2021/10/02 14:33:49;;;;;;;;;;;16.70;99.90;;;;;;5043884;28;19985;-78
2021/10/02 14:36:15;;;;;;;;;;;16.80;99.90;;;;;;5047392;28;19971;-80
2021/10/02 14:38:40;;;;;;;;;;;16.80;99.90;;;;;;5038847;28;20341;-78
2021/10/02 14:41:06;;;;;;;;;;;16.80;99.90;;;;;;5040703;28;19917;-81
2021/10/02 14:43:32;;;;;;;;;;;16.80;99.90;;;;;;5045342;28;19917;-83
2021/10/02 14:45:58;;;;;;;;;;;16.80;99.90;;;;;;5057894;28;20376;-82
2021/10/02 14:48:24;;;;;;;;;;;16.80;99.90;;;;;;5048982;28;20580;-79
2021/10/02 14:50:50;;;;;;;;;;;16.80;99.90;;;;;;5042418;28;19918;-80
2021/10/02 14:53:16;;;;;;;;;;;16.80;99.90;;;;;;5047102;28;19920;-82
2021/10/02 14:55:48;;;;;;;;;;;16.80;99.90;;;;;;5060789;28;20075;-78
2021/10/02 14:58:15;;;;;;;;;;;16.80;99.90;;;;;;5038216;28;19966;-82
2021/10/02 15:00:43;;;;;;;;;;;16.80;99.90;;;;;;5047891;28;20368;-82
2021/10/02 15:03:09;;;;;;;;;;;16.80;99.90;;;;;;5056313;28;20057;-81
2021/10/02 15:05:34;;;;;;;;;;;16.80;99.90;;;;;;5054872;28;20332;-82
2021/10/02 15:08:00;;;;;;;;;;;16.80;99.90;;;;;;5050364;28;19966;-83
2021/10/02 15:10:26;;;;;;;;;;;16.80;99.90;;;;;;5043511;28;19917;-83
2021/10/02 15:12:51;;;;;;;;;;;16.70;99.90;;;;;;5040529;28;20374;-83
2021/10/02 15:15:17;;;;;;;;;;;16.70;99.90;;;;;;5036263;28;19913;-83
2021/10/02 15:17:43;;;;;;;;;;;16.70;99.90;;;;;;5034858;28;20337;-82
2021/10/02 15:20:08;;;;;;;;;;;16.70;99.90;;;;;;5052783;28;19920;-83